sensor_id;sensor_type;location;lat;lon;timestamp;P1;durP1;ratioP1;P2;durP2;ratioP2
13985;SDS011;7067;51.832;8.296;2024-01-06T00:00:45;8.13;;;7.53;;
13985;SDS011;7067;51.832;8.296;2024-01-06T00:03:10;8.32;;;7.63;;
13985;SDS011;7067;51.832;8.296;2024-01-06T00:05:36;7.90;;;7.30;;
13985;SDS011;7067;51.832;8.296;2024-01-06T00:08:01;11.38;;;8.65;;
13985;SDS011;7067;51.832;8.296;2024-01-06T00:10:27;8.48;;;7.80;;
13985;SDS011;7067;51.832;8.296;2024-01-06T00:12:52;8.25;;;7.63;;
13985;SDS011;7067;51.832;8.296;2024-01-06T00:15:17;8.00;;;7.40;;
13985;SDS011;7067;51.832;8.296;2024-01-06T00:17:43;8.35;;;7.55;;
13985;SDS011;7067;51.832;8.296;2024-01-06T00:20:08;8.43;;;7.78;;
13985;SDS011;7067;51.832;8.296;2024-01-06T00:22:34;7.65;;;7.05;;
13985;SDS011;7067;51.832;8.296;2024-01-06T00:25:00;8.90;;;8.20;;
13985;SDS011;7067;51.832;8.296;2024-01-06T00:27:25;8.93;;;8.13;;
13985;SDS011;7067;51.832;8.296;2024-01-06T00:29:51;8.43;;;7.72;;
13985;SDS011;7067;51.832;8.296;2024-01-06T00:32:16;9.65;;;8.85;;
13985;SDS011;7067;51.832;8.296;2024-01-06T00:34:41;9.80;;;8.73;;
13985;SDS011;7067;51.832;8.296;2024-01-06T00:37:07;8.75;;;8.05;;
13985;SDS011;7067;51.832;8.296;2024-01-06T00:39:32;8.73;;;8.02;;
13985;SDS011;7067;51.832;8.296;2024-01-06T00:41:57;9.88;;;9.02;;
13985;SDS011;7067;51.832;8.296;2024-01-06T00:44:23;9.68;;;8.82;;
13985;SDS011;7067;51.832;8.296;2024-01-06T00:46:48;10.57;;;9.65;;
13985;SDS011;7067;51.832;8.296;2024-01-06T00:49:13;11.15;;;10.15;;
13985;SDS011;7067;51.832;8.296;2024-01-06T00:51:39;11.10;;;10.10;;
13985;SDS011;7067;51.832;8.296;2024-01-06T00:54:04;12.13;;;10.95;;
13985;SDS011;7067;51.832;8.296;2024-01-06T00:56:29;11.02;;;10.02;;
13985;SDS011;7067;51.832;8.296;2024-01-06T00:58:55;10.27;;;9.35;;
13985;SDS011;7067;51.832;8.296;2024-01-06T01:01:20;11.60;;;10.50;;
13985;SDS011;7067;51.832;8.296;2024-01-06T01:03:46;11.15;;;10.15;;
13985;SDS011;7067;51.832;8.296;2024-01-06T01:06:12;12.48;;;11.18;;
13985;SDS011;7067;51.832;8.296;2024-01-06T01:08:37;12.15;;;10.95;;
13985;SDS011;7067;51.832;8.296;2024-01-06T01:11:02;13.73;;;12.35;;
13985;SDS011;7067;51.832;8.296;2024-01-06T01:13:28;11.00;;;10.05;;
13985;SDS011;7067;51.832;8.296;2024-01-06T01:15:53;11.98;;;10.90;;
13985;SDS011;7067;51.832;8.296;2024-01-06T01:18:18;13.38;;;12.07;;
13985;SDS011;7067;51.832;8.296;2024-01-06T01:20:44;13.82;;;12.45;;
13985;SDS011;7067;51.832;8.296;2024-01-06T01:23:09;13.63;;;12.15;;
13985;SDS011;7067;51.832;8.296;2024-01-06T01:25:35;13.10;;;11.85;;
13985;SDS011;7067;51.832;8.296;2024-01-06T01:28:00;13.93;;;12.43;;
13985;SDS011;7067;51.832;8.296;2024-01-06T01:30:25;12.88;;;11.68;;
13985;SDS011;7067;51.832;8.296;2024-01-06T01:32:52;15.05;;;13.55;;
13985;SDS011;7067;51.832;8.296;2024-01-06T01:35:17;14.98;;;13.48;;
13985;SDS011;7067;51.832;8.296;2024-01-06T01:37:42;15.15;;;13.55;;
13985;SDS011;7067;51.832;8.296;2024-01-06T01:40:08;14.02;;;12.55;;
13985;SDS011;7067;51.832;8.296;2024-01-06T01:42:34;15.63;;;13.88;;
13985;SDS011;7067;51.832;8.296;2024-01-06T01:44:59;15.00;;;13.43;;
13985;SDS011;7067;51.832;8.296;2024-01-06T01:47:24;15.75;;;14.10;;
13985;SDS011;7067;51.832;8.296;2024-01-06T01:49:50;16.40;;;14.70;;
13985;SDS011;7067;51.832;8.296;2024-01-06T01:52:16;19.00;;;15.50;;
13985;SDS011;7067;51.832;8.296;2024-01-06T01:54:41;17.95;;;15.30;;
13985;SDS011;7067;51.832;8.296;2024-01-06T01:57:07;19.45;;;16.02;;
13985;SDS011;7067;51.832;8.296;2024-01-06T01:59:33;18.92;;;15.40;;
13985;SDS011;7067;51.832;8.296;2024-01-06T02:01:58;19.85;;;15.50;;
13985;SDS011;7067;51.832;8.296;2024-01-06T02:04:24;17.70;;;15.52;;
13985;SDS011;7067;51.832;8.296;2024-01-06T02:06:50;18.00;;;16.02;;
13985;SDS011;7067;51.832;8.296;2024-01-06T02:09:15;16.85;;;15.10;;
13985;SDS011;7067;51.832;8.296;2024-01-06T02:11:40;16.98;;;15.18;;
13985;SDS011;7067;51.832;8.296;2024-01-06T02:14:06;19.60;;;16.23;;
13985;SDS011;7067;51.832;8.296;2024-01-06T02:16:31;18.80;;;16.90;;
13985;SDS011;7067;51.832;8.296;2024-01-06T02:18:56;18.25;;;15.82;;
13985;SDS011;7067;51.832;8.296;2024-01-06T02:21:23;18.88;;;16.48;;
13985;SDS011;7067;51.832;8.296;2024-01-06T02:23:48;19.13;;;16.15;;
13985;SDS011;7067;51.832;8.296;2024-01-06T02:26:14;17.13;;;15.27;;
13985;SDS011;7067;51.832;8.296;2024-01-06T02:28:40;16.45;;;14.57;;
13985;SDS011;7067;51.832;8.296;2024-01-06T02:31:05;19.33;;;15.60;;
13985;SDS011;7067;51.832;8.296;2024-01-06T02:33:31;19.50;;;16.13;;
13985;SDS011;7067;51.832;8.296;2024-01-06T02:35:56;18.88;;;16.48;;
13985;SDS011;7067;51.832;8.296;2024-01-06T02:38:21;19.08;;;16.35;;
13985;SDS011;7067;51.832;8.296;2024-01-06T02:40:47;24.77;;;19.13;;
13985;SDS011;7067;51.832;8.296;2024-01-06T02:43:12;24.02;;;18.60;;
13985;SDS011;7067;51.832;8.296;2024-01-06T02:45:37;21.83;;;19.42;;
13985;SDS011;7067;51.832;8.296;2024-01-06T02:48:03;23.25;;;19.42;;
13985;SDS011;7067;51.832;8.296;2024-01-06T02:50:28;24.55;;;19.20;;
13985;SDS011;7067;51.832;8.296;2024-01-06T02:52:54;22.85;;;19.60;;
13985;SDS011;7067;51.832;8.296;2024-01-06T02:55:19;22.65;;;19.63;;
13985;SDS011;7067;51.832;8.296;2024-01-06T02:57:44;25.30;;;21.17;;
13985;SDS011;7067;51.832;8.296;2024-01-06T03:00:10;25.00;;;21.05;;
13985;SDS011;7067;51.832;8.296;2024-01-06T03:02:36;24.05;;;20.33;;
13985;SDS011;7067;51.832;8.296;2024-01-06T03:05:02;25.52;;;20.92;;
13985;SDS011;7067;51.832;8.296;2024-01-06T03:07:28;24.15;;;20.60;;
13985;SDS011;7067;51.832;8.296;2024-01-06T03:09:53;25.02;;;19.58;;
13985;SDS011;7067;51.832;8.296;2024-01-06T03:12:18;26.13;;;21.38;;
13985;SDS011;7067;51.832;8.296;2024-01-06T03:14:44;26.95;;;22.23;;
13985;SDS011;7067;51.832;8.296;2024-01-06T03:17:09;26.15;;;21.80;;
13985;SDS011;7067;51.832;8.296;2024-01-06T03:19:37;27.13;;;20.58;;
13985;SDS011;7067;51.832;8.296;2024-01-06T03:22:03;26.20;;;21.75;;
13985;SDS011;7067;51.832;8.296;2024-01-06T03:24:29;26.13;;;21.33;;
13985;SDS011;7067;51.832;8.296;2024-01-06T03:26:55;23.42;;;18.98;;
13985;SDS011;7067;51.832;8.296;2024-01-06T03:29:21;23.75;;;19.17;;
13985;SDS011;7067;51.832;8.296;2024-01-06T03:31:46;24.17;;;19.33;;
13985;SDS011;7067;51.832;8.296;2024-01-06T03:34:12;21.40;;;18.45;;
13985;SDS011;7067;51.832;8.296;2024-01-06T03:36:37;22.52;;;18.88;;
13985;SDS011;7067;51.832;8.296;2024-01-06T03:39:03;20.50;;;17.70;;
13985;SDS011;7067;51.832;8.296;2024-01-06T03:41:29;22.70;;;19.23;;
13985;SDS011;7067;51.832;8.296;2024-01-06T03:43:54;23.23;;;18.48;;
13985;SDS011;7067;51.832;8.296;2024-01-06T03:46:20;21.83;;;17.15;;
13985;SDS011;7067;51.832;8.296;2024-01-06T03:48:45;26.08;;;18.50;;
13985;SDS011;7067;51.832;8.296;2024-01-06T03:51:12;21.20;;;17.25;;
13985;SDS011;7067;51.832;8.296;2024-01-06T03:53:37;19.00;;;16.80;;
13985;SDS011;7067;51.832;8.296;2024-01-06T03:56:03;22.27;;;17.20;;
13985;SDS011;7067;51.832;8.296;2024-01-06T03:58:29;21.63;;;17.50;;
13985;SDS011;7067;51.832;8.296;2024-01-06T04:00:54;21.15;;;17.30;;
13985;SDS011;7067;51.832;8.296;2024-01-06T04:03:19;19.85;;;17.55;;
13985;SDS011;7067;51.832;8.296;2024-01-06T04:05:45;18.92;;;16.60;;
13985;SDS011;7067;51.832;8.296;2024-01-06T04:08:10;19.90;;;17.33;;
13985;SDS011;7067;51.832;8.296;2024-01-06T04:10:35;20.83;;;17.20;;
13985;SDS011;7067;51.832;8.296;2024-01-06T04:13:00;22.08;;;17.52;;
13985;SDS011;7067;51.832;8.296;2024-01-06T04:15:26;20.75;;;17.63;;
13985;SDS011;7067;51.832;8.296;2024-01-06T04:17:51;21.38;;;17.95;;
13985;SDS011;7067;51.832;8.296;2024-01-06T04:20:17;21.15;;;17.48;;
13985;SDS011;7067;51.832;8.296;2024-01-06T04:22:43;22.27;;;18.05;;
13985;SDS011;7067;51.832;8.296;2024-01-06T04:25:09;22.60;;;17.95;;
13985;SDS011;7067;51.832;8.296;2024-01-06T04:27:35;21.48;;;17.90;;
13985;SDS011;7067;51.832;8.296;2024-01-06T04:30:00;20.08;;;16.65;;
13985;SDS011;7067;51.832;8.296;2024-01-06T04:32:25;17.70;;;15.52;;
13985;SDS011;7067;51.832;8.296;2024-01-06T04:34:51;19.85;;;16.52;;
13985;SDS011;7067;51.832;8.296;2024-01-06T04:37:17;19.70;;;16.05;;
13985;SDS011;7067;51.832;8.296;2024-01-06T04:39:43;19.48;;;15.90;;
13985;SDS011;7067;51.832;8.296;2024-01-06T04:42:08;17.42;;;14.55;;
13985;SDS011;7067;51.832;8.296;2024-01-06T04:44:34;20.17;;;16.52;;
13985;SDS011;7067;51.832;8.296;2024-01-06T04:46:59;17.77;;;15.18;;
13985;SDS011;7067;51.832;8.296;2024-01-06T04:49:25;19.45;;;14.73;;
13985;SDS011;7067;51.832;8.296;2024-01-06T04:51:50;19.42;;;14.55;;
13985;SDS011;7067;51.832;8.296;2024-01-06T04:54:15;18.83;;;15.32;;
13985;SDS011;7067;51.832;8.296;2024-01-06T04:56:41;16.55;;;14.00;;
13985;SDS011;7067;51.832;8.296;2024-01-06T04:59:06;21.08;;;15.30;;
13985;SDS011;7067;51.832;8.296;2024-01-06T05:01:31;19.33;;;14.70;;
13985;SDS011;7067;51.832;8.296;2024-01-06T05:03:57;20.35;;;15.23;;
13985;SDS011;7067;51.832;8.296;2024-01-06T05:06:23;18.58;;;15.32;;
13985;SDS011;7067;51.832;8.296;2024-01-06T05:08:48;17.38;;;14.50;;
13985;SDS011;7067;51.832;8.296;2024-01-06T05:11:13;18.40;;;15.20;;
13985;SDS011;7067;51.832;8.296;2024-01-06T05:13:39;19.30;;;14.40;;
13985;SDS011;7067;51.832;8.296;2024-01-06T05:16:04;17.42;;;13.80;;
13985;SDS011;7067;51.832;8.296;2024-01-06T05:18:29;16.42;;;13.68;;
13985;SDS011;7067;51.832;8.296;2024-01-06T05:20:55;20.52;;;15.02;;
13985;SDS011;7067;51.832;8.296;2024-01-06T05:23:20;20.25;;;13.85;;
13985;SDS011;7067;51.832;8.296;2024-01-06T05:25:46;18.92;;;13.38;;
13985;SDS011;7067;51.832;8.296;2024-01-06T05:28:11;18.63;;;14.35;;
13985;SDS011;7067;51.832;8.296;2024-01-06T05:30:36;18.23;;;13.80;;
13985;SDS011;7067;51.832;8.296;2024-01-06T05:33:02;17.60;;;14.18;;
13985;SDS011;7067;51.832;8.296;2024-01-06T05:35:28;19.10;;;14.77;;
13985;SDS011;7067;51.832;8.296;2024-01-06T05:37:54;19.73;;;14.30;;
13985;SDS011;7067;51.832;8.296;2024-01-06T05:40:19;18.88;;;14.75;;
13985;SDS011;7067;51.832;8.296;2024-01-06T05:42:44;19.17;;;14.68;;
13985;SDS011;7067;51.832;8.296;2024-01-06T05:45:10;20.42;;;14.88;;
13985;SDS011;7067;51.832;8.296;2024-01-06T05:47:37;20.38;;;15.10;;
13985;SDS011;7067;51.832;8.296;2024-01-06T05:50:03;20.63;;;15.77;;
13985;SDS011;7067;51.832;8.296;2024-01-06T05:52:28;19.63;;;15.27;;
13985;SDS011;7067;51.832;8.296;2024-01-06T05:54:54;19.10;;;15.25;;
13985;SDS011;7067;51.832;8.296;2024-01-06T05:57:19;22.38;;;16.08;;
13985;SDS011;7067;51.832;8.296;2024-01-06T05:59:45;21.13;;;14.85;;
13985;SDS011;7067;51.832;8.296;2024-01-06T06:02:11;18.45;;;15.27;;
13985;SDS011;7067;51.832;8.296;2024-01-06T06:04:36;17.35;;;14.50;;
13985;SDS011;7067;51.832;8.296;2024-01-06T06:07:01;18.00;;;14.70;;
13985;SDS011;7067;51.832;8.296;2024-01-06T06:09:27;17.90;;;12.88;;
13985;SDS011;7067;51.832;8.296;2024-01-06T06:11:53;16.92;;;12.93;;
13985;SDS011;7067;51.832;8.296;2024-01-06T06:14:19;17.50;;;13.27;;
13985;SDS011;7067;51.832;8.296;2024-01-06T06:16:44;16.38;;;13.40;;
13985;SDS011;7067;51.832;8.296;2024-01-06T06:19:09;15.05;;;12.38;;
13985;SDS011;7067;51.832;8.296;2024-01-06T06:21:35;15.07;;;13.45;;
13985;SDS011;7067;51.832;8.296;2024-01-06T06:24:00;15.57;;;12.82;;
13985;SDS011;7067;51.832;8.296;2024-01-06T06:26:25;15.75;;;12.23;;
13985;SDS011;7067;51.832;8.296;2024-01-06T06:28:52;15.45;;;13.10;;
13985;SDS011;7067;51.832;8.296;2024-01-06T06:31:17;18.17;;;13.30;;
13985;SDS011;7067;51.832;8.296;2024-01-06T06:33:42;16.55;;;13.30;;
13985;SDS011;7067;51.832;8.296;2024-01-06T06:36:08;15.50;;;13.70;;
13985;SDS011;7067;51.832;8.296;2024-01-06T06:38:33;17.40;;;14.05;;
13985;SDS011;7067;51.832;8.296;2024-01-06T06:40:58;16.55;;;13.25;;
13985;SDS011;7067;51.832;8.296;2024-01-06T06:43:24;14.85;;;12.77;;
13985;SDS011;7067;51.832;8.296;2024-01-06T06:45:49;16.40;;;13.20;;
13985;SDS011;7067;51.832;8.296;2024-01-06T06:48:14;13.48;;;12.05;;
13985;SDS011;7067;51.832;8.296;2024-01-06T06:50:40;13.63;;;12.02;;
13985;SDS011;7067;51.832;8.296;2024-01-06T06:53:07;14.93;;;12.48;;
13985;SDS011;7067;51.832;8.296;2024-01-06T06:55:33;11.75;;;10.63;;
13985;SDS011;7067;51.832;8.296;2024-01-06T06:57:58;16.83;;;14.23;;
13985;SDS011;7067;51.832;8.296;2024-01-06T07:00:23;15.75;;;12.57;;
13985;SDS011;7067;51.832;8.296;2024-01-06T07:02:49;27.38;;;19.80;;
13985;SDS011;7067;51.832;8.296;2024-01-06T07:05:14;25.15;;;18.45;;
13985;SDS011;7067;51.832;8.296;2024-01-06T07:07:40;24.92;;;16.85;;
13985;SDS011;7067;51.832;8.296;2024-01-06T07:10:05;40.08;;;23.63;;
13985;SDS011;7067;51.832;8.296;2024-01-06T07:12:31;18.20;;;13.88;;
13985;SDS011;7067;51.832;8.296;2024-01-06T07:14:57;11.73;;;8.57;;
13985;SDS011;7067;51.832;8.296;2024-01-06T07:17:25;10.15;;;8.88;;
13985;SDS011;7067;51.832;8.296;2024-01-06T07:19:50;10.15;;;9.10;;
13985;SDS011;7067;51.832;8.296;2024-01-06T07:22:16;9.75;;;8.73;;
13985;SDS011;7067;51.832;8.296;2024-01-06T07:24:43;9.40;;;8.27;;
13985;SDS011;7067;51.832;8.296;2024-01-06T07:27:09;9.30;;;8.10;;
13985;SDS011;7067;51.832;8.296;2024-01-06T07:29:34;11.00;;;9.23;;
13985;SDS011;7067;51.832;8.296;2024-01-06T07:31:59;12.02;;;9.02;;
13985;SDS011;7067;51.832;8.296;2024-01-06T07:34:25;12.38;;;10.90;;
13985;SDS011;7067;51.832;8.296;2024-01-06T07:36:50;12.52;;;11.27;;
13985;SDS011;7067;51.832;8.296;2024-01-06T07:39:16;13.32;;;11.52;;
13985;SDS011;7067;51.832;8.296;2024-01-06T07:41:42;12.40;;;11.18;;
13985;SDS011;7067;51.832;8.296;2024-01-06T07:44:07;11.88;;;9.98;;
13985;SDS011;7067;51.832;8.296;2024-01-06T07:46:32;10.65;;;9.10;;
13985;SDS011;7067;51.832;8.296;2024-01-06T07:48:58;9.73;;;8.70;;
13985;SDS011;7067;51.832;8.296;2024-01-06T07:51:23;9.13;;;8.30;;
13985;SDS011;7067;51.832;8.296;2024-01-06T07:53:50;11.40;;;8.77;;
13985;SDS011;7067;51.832;8.296;2024-01-06T07:56:15;9.90;;;8.90;;
13985;SDS011;7067;51.832;8.296;2024-01-06T07:58:41;9.20;;;7.50;;
13985;SDS011;7067;51.832;8.296;2024-01-06T08:01:06;9.77;;;8.50;;
13985;SDS011;7067;51.832;8.296;2024-01-06T08:03:31;8.82;;;7.88;;
13985;SDS011;7067;51.832;8.296;2024-01-06T08:05:57;10.30;;;9.20;;
13985;SDS011;7067;51.832;8.296;2024-01-06T08:08:22;10.57;;;9.45;;
13985;SDS011;7067;51.832;8.296;2024-01-06T08:10:47;10.73;;;8.80;;
13985;SDS011;7067;51.832;8.296;2024-01-06T08:13:13;12.43;;;9.02;;
13985;SDS011;7067;51.832;8.296;2024-01-06T08:15:39;11.13;;;9.30;;
13985;SDS011;7067;51.832;8.296;2024-01-06T08:18:04;12.27;;;9.27;;
13985;SDS011;7067;51.832;8.296;2024-01-06T08:20:29;13.82;;;10.50;;
13985;SDS011;7067;51.832;8.296;2024-01-06T08:22:55;11.65;;;9.57;;
13985;SDS011;7067;51.832;8.296;2024-01-06T08:25:20;10.68;;;9.00;;
13985;SDS011;7067;51.832;8.296;2024-01-06T08:27:45;13.20;;;10.23;;
13985;SDS011;7067;51.832;8.296;2024-01-06T08:30:11;13.30;;;10.13;;
13985;SDS011;7067;51.832;8.296;2024-01-06T08:32:37;10.77;;;8.60;;
13985;SDS011;7067;51.832;8.296;2024-01-06T08:35:02;12.52;;;9.65;;
13985;SDS011;7067;51.832;8.296;2024-01-06T08:37:28;10.38;;;8.45;;
13985;SDS011;7067;51.832;8.296;2024-01-06T08:39:54;13.65;;;9.43;;
13985;SDS011;7067;51.832;8.296;2024-01-06T08:42:19;12.75;;;9.07;;
13985;SDS011;7067;51.832;8.296;2024-01-06T08:44:45;14.55;;;10.15;;
13985;SDS011;7067;51.832;8.296;2024-01-06T08:47:11;14.90;;;10.20;;
13985;SDS011;7067;51.832;8.296;2024-01-06T08:49:37;13.38;;;10.25;;
13985;SDS011;7067;51.832;8.296;2024-01-06T08:52:02;15.32;;;10.50;;
13985;SDS011;7067;51.832;8.296;2024-01-06T08:54:28;15.70;;;10.73;;
13985;SDS011;7067;51.832;8.296;2024-01-06T08:56:53;14.93;;;10.98;;
13985;SDS011;7067;51.832;8.296;2024-01-06T08:59:19;13.02;;;10.38;;
13985;SDS011;7067;51.832;8.296;2024-01-06T09:01:45;19.75;;;12.07;;
13985;SDS011;7067;51.832;8.296;2024-01-06T09:04:10;15.15;;;11.05;;
13985;SDS011;7067;51.832;8.296;2024-01-06T09:06:37;17.27;;;11.57;;
13985;SDS011;7067;51.832;8.296;2024-01-06T09:09:02;16.70;;;11.70;;
13985;SDS011;7067;51.832;8.296;2024-01-06T09:11:28;13.73;;;10.88;;
13985;SDS011;7067;51.832;8.296;2024-01-06T09:13:53;13.10;;;10.50;;
13985;SDS011;7067;51.832;8.296;2024-01-06T09:16:19;13.95;;;10.95;;
13985;SDS011;7067;51.832;8.296;2024-01-06T09:18:44;14.57;;;11.23;;
13985;SDS011;7067;51.832;8.296;2024-01-06T09:21:10;16.50;;;11.73;;
13985;SDS011;7067;51.832;8.296;2024-01-06T09:23:35;18.50;;;14.55;;
13985;SDS011;7067;51.832;8.296;2024-01-06T09:26:01;17.08;;;14.13;;
13985;SDS011;7067;51.832;8.296;2024-01-06T09:28:26;19.30;;;13.07;;
13985;SDS011;7067;51.832;8.296;2024-01-06T09:30:52;18.40;;;13.23;;
13985;SDS011;7067;51.832;8.296;2024-01-06T09:33:20;19.45;;;14.13;;
13985;SDS011;7067;51.832;8.296;2024-01-06T09:35:46;15.80;;;12.18;;
13985;SDS011;7067;51.832;8.296;2024-01-06T09:38:12;18.17;;;12.40;;
13985;SDS011;7067;51.832;8.296;2024-01-06T09:40:41;18.48;;;12.57;;
13985;SDS011;7067;51.832;8.296;2024-01-06T09:43:08;20.85;;;13.85;;
13985;SDS011;7067;51.832;8.296;2024-01-06T09:45:34;14.52;;;12.18;;
13985;SDS011;7067;51.832;8.296;2024-01-06T09:47:59;18.65;;;14.13;;
13985;SDS011;7067;51.832;8.296;2024-01-06T09:50:31;17.08;;;13.00;;
13985;SDS011;7067;51.832;8.296;2024-01-06T09:52:56;18.48;;;12.90;;
13985;SDS011;7067;51.832;8.296;2024-01-06T09:55:30;18.38;;;12.73;;
13985;SDS011;7067;51.832;8.296;2024-01-06T09:57:56;18.23;;;11.65;;
13985;SDS011;7067;51.832;8.296;2024-01-06T10:00:21;19.20;;;11.85;;
13985;SDS011;7067;51.832;8.296;2024-01-06T10:02:47;18.45;;;12.50;;
13985;SDS011;7067;51.832;8.296;2024-01-06T10:05:14;13.50;;;10.57;;
13985;SDS011;7067;51.832;8.296;2024-01-06T10:07:41;13.73;;;9.82;;
13985;SDS011;7067;51.832;8.296;2024-01-06T10:10:08;14.75;;;10.07;;
13985;SDS011;7067;51.832;8.296;2024-01-06T10:12:36;13.95;;;9.40;;
13985;SDS011;7067;51.832;8.296;2024-01-06T10:15:03;12.70;;;9.23;;
13985;SDS011;7067;51.832;8.296;2024-01-06T10:17:28;16.65;;;11.82;;
13985;SDS011;7067;51.832;8.296;2024-01-06T10:19:54;17.42;;;13.40;;
13985;SDS011;7067;51.832;8.296;2024-01-06T10:22:19;16.52;;;12.07;;
13985;SDS011;7067;51.832;8.296;2024-01-06T10:24:45;12.90;;;9.63;;
13985;SDS011;7067;51.832;8.296;2024-01-06T10:27:11;10.40;;;9.27;;
13985;SDS011;7067;51.832;8.296;2024-01-06T10:29:36;14.32;;;8.95;;
13985;SDS011;7067;51.832;8.296;2024-01-06T10:32:02;12.05;;;8.30;;
13985;SDS011;7067;51.832;8.296;2024-01-06T10:34:28;16.42;;;12.30;;
13985;SDS011;7067;51.832;8.296;2024-01-06T10:36:54;11.85;;;10.43;;
13985;SDS011;7067;51.832;8.296;2024-01-06T10:39:20;13.55;;;10.95;;
13985;SDS011;7067;51.832;8.296;2024-01-06T10:41:46;11.88;;;8.98;;
13985;SDS011;7067;51.832;8.296;2024-01-06T10:44:14;11.82;;;8.55;;
13985;SDS011;7067;51.832;8.296;2024-01-06T10:46:40;10.80;;;8.13;;
13985;SDS011;7067;51.832;8.296;2024-01-06T10:49:07;10.27;;;8.10;;
13985;SDS011;7067;51.832;8.296;2024-01-06T10:51:36;9.35;;;8.18;;
13985;SDS011;7067;51.832;8.296;2024-01-06T10:54:02;8.55;;;7.60;;
13985;SDS011;7067;51.832;8.296;2024-01-06T10:56:27;15.40;;;10.07;;
13985;SDS011;7067;51.832;8.296;2024-01-06T10:58:54;10.73;;;8.65;;
13985;SDS011;7067;51.832;8.296;2024-01-06T11:01:23;11.32;;;9.07;;
13985;SDS011;7067;51.832;8.296;2024-01-06T11:03:49;13.90;;;9.40;;
13985;SDS011;7067;51.832;8.296;2024-01-06T11:06:15;13.07;;;8.50;;
13985;SDS011;7067;51.832;8.296;2024-01-06T11:08:44;12.85;;;8.82;;
13985;SDS011;7067;51.832;8.296;2024-01-06T11:11:17;11.23;;;9.15;;
13985;SDS011;7067;51.832;8.296;2024-01-06T11:13:43;12.68;;;9.77;;
13985;SDS011;7067;51.832;8.296;2024-01-06T11:16:10;11.70;;;9.57;;
13985;SDS011;7067;51.832;8.296;2024-01-06T11:18:36;10.82;;;8.60;;
13985;SDS011;7067;51.832;8.296;2024-01-06T11:21:16;11.68;;;8.30;;
13985;SDS011;7067;51.832;8.296;2024-01-06T11:26:45;12.63;;;10.13;;
13985;SDS011;7067;51.832;8.296;2024-01-06T11:29:11;14.75;;;10.63;;
13985;SDS011;7067;51.832;8.296;2024-01-06T11:31:37;11.95;;;9.23;;
13985;SDS011;7067;51.832;8.296;2024-01-06T11:34:12;10.15;;;7.93;;
13985;SDS011;7067;51.832;8.296;2024-01-06T11:36:38;8.23;;;7.43;;
13985;SDS011;7067;51.832;8.296;2024-01-06T11:39:05;8.35;;;7.55;;
13985;SDS011;7067;51.832;8.296;2024-01-06T11:41:49;8.13;;;7.13;;
13985;SDS011;7067;51.832;8.296;2024-01-06T11:44:20;13.43;;;7.88;;
13985;SDS011;7067;51.832;8.296;2024-01-06T11:46:45;7.28;;;6.57;;
13985;SDS011;7067;51.832;8.296;2024-01-06T11:49:10;6.75;;;6.10;;
13985;SDS011;7067;51.832;8.296;2024-01-06T11:51:37;7.63;;;6.30;;
13985;SDS011;7067;51.832;8.296;2024-01-06T11:54:02;7.97;;;7.15;;
13985;SDS011;7067;51.832;8.296;2024-01-06T11:56:28;6.82;;;5.72;;
13985;SDS011;7067;51.832;8.296;2024-01-06T11:58:53;6.95;;;6.35;;
13985;SDS011;7067;51.832;8.296;2024-01-06T12:01:19;5.18;;;4.00;;
13985;SDS011;7067;51.832;8.296;2024-01-06T12:03:44;6.45;;;5.65;;
13985;SDS011;7067;51.832;8.296;2024-01-06T12:06:10;4.72;;;4.32;;
13985;SDS011;7067;51.832;8.296;2024-01-06T12:08:35;4.65;;;4.25;;
13985;SDS011;7067;51.832;8.296;2024-01-06T12:11:04;3.40;;;3.10;;
13985;SDS011;7067;51.832;8.296;2024-01-06T12:13:30;4.78;;;3.85;;
13985;SDS011;7067;51.832;8.296;2024-01-06T12:15:55;4.10;;;3.80;;
13985;SDS011;7067;51.832;8.296;2024-01-06T12:18:21;3.50;;;3.22;;
13985;SDS011;7067;51.832;8.296;2024-01-06T12:20:48;4.22;;;3.83;;
13985;SDS011;7067;51.832;8.296;2024-01-06T12:23:23;4.63;;;4.22;;
13985;SDS011;7067;51.832;8.296;2024-01-06T12:25:49;4.45;;;4.05;;
13985;SDS011;7067;51.832;8.296;2024-01-06T12:28:15;3.80;;;3.50;;
13985;SDS011;7067;51.832;8.296;2024-01-06T12:30:40;3.80;;;3.50;;
13985;SDS011;7067;51.832;8.296;2024-01-06T12:33:06;4.25;;;3.85;;
13985;SDS011;7067;51.832;8.296;2024-01-06T12:35:31;5.25;;;4.75;;
13985;SDS011;7067;51.832;8.296;2024-01-06T12:37:56;4.35;;;3.80;;
13985;SDS011;7067;51.832;8.296;2024-01-06T12:40:22;16.02;;;9.10;;
13985;SDS011;7067;51.832;8.296;2024-01-06T12:42:47;9.70;;;6.18;;
13985;SDS011;7067;51.832;8.296;2024-01-06T12:45:13;6.15;;;5.55;;
13985;SDS011;7067;51.832;8.296;2024-01-06T12:47:40;3.42;;;3.13;;
13985;SDS011;7067;51.832;8.296;2024-01-06T12:50:07;3.88;;;3.58;;
13985;SDS011;7067;51.832;8.296;2024-01-06T12:52:33;3.88;;;3.58;;
13985;SDS011;7067;51.832;8.296;2024-01-06T12:54:58;3.38;;;3.08;;
13985;SDS011;7067;51.832;8.296;2024-01-06T12:57:24;3.63;;;3.33;;
13985;SDS011;7067;51.832;8.296;2024-01-06T12:59:49;3.80;;;3.50;;
13985;SDS011;7067;51.832;8.296;2024-01-06T13:02:14;3.50;;;3.10;;
13985;SDS011;7067;51.832;8.296;2024-01-06T13:04:40;4.53;;;4.13;;
13985;SDS011;7067;51.832;8.296;2024-01-06T13:07:05;3.85;;;3.55;;
13985;SDS011;7067;51.832;8.296;2024-01-06T13:09:31;3.92;;;3.53;;
13985;SDS011;7067;51.832;8.296;2024-01-06T13:11:56;3.35;;;3.05;;
13985;SDS011;7067;51.832;8.296;2024-01-06T13:14:25;3.92;;;3.63;;
13985;SDS011;7067;51.832;8.296;2024-01-06T13:16:54;3.90;;;3.55;;
13985;SDS011;7067;51.832;8.296;2024-01-06T13:19:20;4.25;;;3.85;;
13985;SDS011;7067;51.832;8.296;2024-01-06T13:21:46;9.13;;;5.00;;
13985;SDS011;7067;51.832;8.296;2024-01-06T13:24:12;5.25;;;4.63;;
13985;SDS011;7067;51.832;8.296;2024-01-06T13:26:37;6.25;;;5.22;;
13985;SDS011;7067;51.832;8.296;2024-01-06T13:29:03;7.90;;;4.97;;
13985;SDS011;7067;51.832;8.296;2024-01-06T13:31:28;5.60;;;5.10;;
13985;SDS011;7067;51.832;8.296;2024-01-06T13:33:54;6.88;;;5.97;;
13985;SDS011;7067;51.832;8.296;2024-01-06T13:36:20;5.45;;;4.93;;
13985;SDS011;7067;51.832;8.296;2024-01-06T13:38:46;7.03;;;5.70;;
13985;SDS011;7067;51.832;8.296;2024-01-06T13:41:11;7.00;;;5.45;;
13985;SDS011;7067;51.832;8.296;2024-01-06T13:43:37;6.30;;;5.70;;
13985;SDS011;7067;51.832;8.296;2024-01-06T13:46:02;7.03;;;6.32;;
13985;SDS011;7067;51.832;8.296;2024-01-06T13:48:27;6.80;;;5.82;;
13985;SDS011;7067;51.832;8.296;2024-01-06T13:50:53;6.47;;;5.88;;
13985;SDS011;7067;51.832;8.296;2024-01-06T13:53:19;11.43;;;8.50;;
13985;SDS011;7067;51.832;8.296;2024-01-06T13:55:44;7.10;;;6.35;;
13985;SDS011;7067;51.832;8.296;2024-01-06T13:58:10;7.97;;;6.65;;
13985;SDS011;7067;51.832;8.296;2024-01-06T14:00:35;9.85;;;7.10;;
13985;SDS011;7067;51.832;8.296;2024-01-06T14:03:01;21.98;;;11.88;;
13985;SDS011;7067;51.832;8.296;2024-01-06T14:05:27;17.98;;;10.07;;
13985;SDS011;7067;51.832;8.296;2024-01-06T14:07:52;16.05;;;10.82;;
13985;SDS011;7067;51.832;8.296;2024-01-06T14:10:18;27.60;;;14.15;;
13985;SDS011;7067;51.832;8.296;2024-01-06T14:12:44;7.78;;;5.78;;
13985;SDS011;7067;51.832;8.296;2024-01-06T14:15:09;6.45;;;5.85;;
13985;SDS011;7067;51.832;8.296;2024-01-06T14:17:34;6.28;;;5.68;;
13985;SDS011;7067;51.832;8.296;2024-01-06T14:20:00;6.07;;;5.47;;
13985;SDS011;7067;51.832;8.296;2024-01-06T14:22:26;5.72;;;5.10;;
13985;SDS011;7067;51.832;8.296;2024-01-06T14:24:52;5.75;;;5.25;;
13985;SDS011;7067;51.832;8.296;2024-01-06T14:27:17;5.45;;;4.93;;
13985;SDS011;7067;51.832;8.296;2024-01-06T14:29:43;6.75;;;5.63;;
13985;SDS011;7067;51.832;8.296;2024-01-06T14:32:08;9.90;;;8.90;;
13985;SDS011;7067;51.832;8.296;2024-01-06T14:34:34;7.05;;;5.15;;
13985;SDS011;7067;51.832;8.296;2024-01-06T14:36:59;5.15;;;4.65;;